EDDHLTBS

Guest
Details From EDDH - Hamburg
To LTBS - Dalaman
Flight Number -
Tags Generated
Created
Modified
Stats Distance 1,285 nm / 2,379 km
Max Altitude 0 ft / 0 m
Waypoints 6
Social Downloads 2
Likes 0
Share VATSIM

Download

Looking for another format? Having issues loading an existing format? Contact us
Advertisement - Login to hide

Notes

Generated

Route

EDDH KOPIT TORNO UTEKA DAL31 LTBS

ID Type Via Altitude Latitude Longitude Leg Dist Tot Dist Heading (true) Name
O EDDH APT - 0 ft / 0 m 53.65441˚ 9.97521˚ - 0 nm - -
KOPIT FIX - 0 ft / 0 m 50.18821˚ 15.15795˚ 283 nm 283 nm 135° / 139° -
TORNO FIX - 0 ft / 0 m 47.53977˚ 18.49012˚ 206 nm 489 nm 139° / 142° -
UTEKA FIX - 0 ft / 0 m 43.91222˚ 22.39222˚ 272 nm 761 nm 142° / 144° -
DAL31 FIX - 0 ft / 0 m 36.77639˚ 28.68469˚ 515 nm 1277 nm 144° / 148° -
O LTBS APT - 0 ft / 0 m 36.70016˚ 28.78809˚ 6 nm 1284 nm 133° / 133° -

Altitude Profile

Advertisement - Login to hide

Weather


0- 5 10 15 20 25 30 35+ Temperature / ° C

Clouds and Precipitation
Forecast for 2017-12-18 00:00 UTC. Updated 43 minutes ago

Ground ~20,000 ft ~40,000 ft Winds

EDDH

Details ICAO EDDH (HAM)
Name Hamburg
Region Germany - Civil
Timezone Europe/Berlin (UTC+1.0)
Stats Elevation 53 ft / 16 m (AMSL)
Location 53.633665° 9.985235°
Runways 2
Magnetic Variation 2.787° E

METAR

EDDH 172150Z 13006KT 9999 SCT007 BKN042 M01/M02 Q1020 NOSIG

Decode

TAF

TAF TAF EDDH 171700Z 1718/1824 22004KT 9000 FEW013 PROB40 TEMPO 1719/1724 BKN007 PROB30 TEMPO 1719/1722 1200 BCFG BKN002 BECMG 1722/1724 16007KT TEMPO 1800/1824 BKN007 PROB30 TEMPO 1803/1807 3500 -SNRA BKN004

Decode

Departure Runways

ID Width Length Bearing (true) Bearing (mag) Surface Threshold Offset Overrun Length
05 151 ft / 46 m 10,647 ft / 3,245 m 50.18° 47.39° Asphalt 978 ft / 298 m 194 ft / 59 m
15 151 ft / 46 m 12,013 ft / 3,662 m 152.89° 150.10° Asphalt 0 ft / 0 m 194 ft / 59 m
23 151 ft / 46 m 10,647 ft / 3,245 m 230.22° 227.43° Asphalt 509 ft / 155 m 240 ft / 73 m
33 151 ft / 46 m 12,013 ft / 3,662 m 332.91° 330.12° Asphalt 1,463 ft / 446 m 164 ft / 50 m

LTBS

Details ICAO LTBS (DLM)
Name DALAMAN
Region Turkey
Timezone Europe/Istanbul (UTC+3.0)
Stats Elevation 20 ft / 6 m (AMSL)
Location 36.713189° 28.792513°
Runways 1
Magnetic Variation 4.880° E

METAR

LTBS 172150Z 18014KT 9999 SCT020 BKN070 18/14 Q1017 R012///95 BECMG VRB02KT

Decode

TAF

Not found

Destination Runways

ID Width Length Bearing (true) Bearing (mag) Surface Threshold Offset Overrun Length
01 148 ft / 45 m 9,851 ft / 3,003 m 15.24° 10.36° Concrete 0 ft / 0 m 197 ft / 60 m
19 148 ft / 45 m 9,851 ft / 3,003 m 195.25° 190.37° Concrete 0 ft / 0 m 197 ft / 60 m

Popular Alternatives